createdAt,value
2019-02-12T00:00:14.802Z,0.24
2019-02-12T00:02:43.004Z,0.21
2019-02-12T00:05:12.573Z,0.13
2019-02-12T00:07:40.869Z,0.11
2019-02-12T00:10:09.082Z,0.07
2019-02-12T00:12:37.300Z,0.03
2019-02-12T00:15:06.150Z,0.02
2019-02-12T00:17:34.405Z,-0.01
2019-02-12T00:20:02.526Z,-0.04
2019-02-12T00:22:30.706Z,-0.07
2019-02-12T00:24:58.899Z,-0.09
2019-02-12T00:27:27.114Z,-0.11
2019-02-12T00:29:55.327Z,-0.11
2019-02-12T00:32:23.507Z,-0.12
2019-02-12T00:34:51.685Z,-0.09
2019-02-12T00:37:19.876Z,-0.08
2019-02-12T00:39:48.124Z,-0.04
2019-02-12T00:42:16.311Z,-0.01
2019-02-12T00:44:44.512Z,0.04
2019-02-12T00:47:12.707Z,0.08
2019-02-12T00:49:40.908Z,0.14
2019-02-12T00:52:09.090Z,0.21
2019-02-12T00:54:37.284Z,0.27
2019-02-12T00:57:05.458Z,0.33
2019-02-12T00:59:33.637Z,0.40
2019-02-12T01:02:01.808Z,0.44
2019-02-12T01:04:29.988Z,0.49
2019-02-12T01:06:58.162Z,0.51
2019-02-12T01:09:26.332Z,0.54
2019-02-12T01:11:54.503Z,0.52
2019-02-12T01:14:22.692Z,0.62
2019-02-12T01:16:50.870Z,0.65
2019-02-12T01:19:19.059Z,0.69
2019-02-12T01:21:47.311Z,0.71
2019-02-12T01:24:15.427Z,0.72
2019-02-12T01:26:43.618Z,0.73
2019-02-12T01:29:11.836Z,0.76
2019-02-12T01:31:40.039Z,0.78
2019-02-12T01:34:08.243Z,0.80
2019-02-12T01:36:36.427Z,0.82
2019-02-12T01:39:05.095Z,0.84
2019-02-12T01:41:33.307Z,0.85
2019-02-12T01:44:01.519Z,0.86
2019-02-12T01:46:29.756Z,0.83
2019-02-12T01:48:57.893Z,0.90
2019-02-12T01:51:34.780Z,0.93
2019-02-12T01:53:55.999Z,0.96
2019-02-12T01:56:24.202Z,0.99
2019-02-12T01:58:52.375Z,1.02
2019-02-12T02:01:20.550Z,1.02
2019-02-12T02:03:48.775Z,1.03
2019-02-12T02:06:16.965Z,1.05
2019-02-12T02:08:45.138Z,1.07
2019-02-12T02:11:13.339Z,1.05
2019-02-12T02:13:41.511Z,1.04
2019-02-12T02:16:09.702Z,1.02
2019-02-12T02:18:37.895Z,1.05
2019-02-12T02:21:06.077Z,1.06
2019-02-12T02:23:34.330Z,1.05
2019-02-12T02:26:02.497Z,1.03
2019-02-12T02:28:30.690Z,1.04
2019-02-12T02:30:58.895Z,1.02
2019-02-12T02:33:27.106Z,1.02
2019-02-12T02:35:55.277Z,1.01
2019-02-12T02:38:23.499Z,1.00
2019-02-12T02:40:51.714Z,0.99
2019-02-12T02:43:19.903Z,0.99
2019-02-12T02:45:48.074Z,0.99
2019-02-12T02:48:16.404Z,0.98
2019-02-12T02:50:44.581Z,0.96
2019-02-12T02:53:12.779Z,0.95
2019-02-12T02:55:40.958Z,0.96
2019-02-12T02:58:09.129Z,0.95
2019-02-12T03:00:37.306Z,0.96
2019-02-12T03:03:05.491Z,0.94
2019-02-12T03:05:33.662Z,0.93
2019-02-12T03:08:01.835Z,0.92
2019-02-12T03:10:30.018Z,0.93
2019-02-12T03:12:58.185Z,0.92
2019-02-12T03:15:26.355Z,0.92
2019-02-12T03:17:54.525Z,0.92
2019-02-12T03:20:22.709Z,0.91
2019-02-12T03:22:50.949Z,0.90
2019-02-12T03:25:19.125Z,0.90
2019-02-12T03:27:47.295Z,0.90
2019-02-12T03:30:15.474Z,0.91
2019-02-12T03:32:43.644Z,0.90
2019-02-12T03:35:11.828Z,0.90
2019-02-12T03:37:40.010Z,0.90
2019-02-12T03:40:10.331Z,0.92
2019-02-12T03:42:38.502Z,0.93
2019-02-12T03:45:11.807Z,0.93
2019-02-12T03:47:39.982Z,0.93
2019-02-12T03:50:09.899Z,0.95
2019-02-12T03:52:38.064Z,0.99
2019-02-12T03:55:09.374Z,1.00
2019-02-12T03:57:37.537Z,1.01
2019-02-12T04:00:16.100Z,1.01
2019-02-12T04:03:03.707Z,1.02
2019-02-12T04:05:32.015Z,1.02
2019-02-12T04:08:00.194Z,1.01
2019-02-12T04:10:28.372Z,1.01
2019-02-12T04:12:56.596Z,1.01
2019-02-12T04:15:24.774Z,1.01
2019-02-12T04:17:52.946Z,1.01
2019-02-12T04:20:21.126Z,1.01
2019-02-12T04:22:49.334Z,1.01
2019-02-12T04:27:59.293Z,0.99
2019-02-12T04:30:27.505Z,0.99
2019-02-12T04:32:55.670Z,0.99
2019-02-12T04:35:23.861Z,0.99
2019-02-12T04:37:52.033Z,0.98
2019-02-12T04:47:11.786Z,1.01
2019-02-12T04:56:23.970Z,1.01
2019-02-12T04:58:55.698Z,1.00
2019-02-12T05:01:25.856Z,0.99
2019-02-12T05:03:54.181Z,0.98
2019-02-12T05:06:22.555Z,0.98
2019-02-12T05:19:11.415Z,0.98
2019-02-12T05:21:48.516Z,0.97
2019-02-12T05:24:16.757Z,0.98
2019-02-12T05:26:44.994Z,0.95
2019-02-12T05:29:13.174Z,0.86
2019-02-12T05:31:41.392Z,0.76
2019-02-12T05:34:09.567Z,0.40
2019-02-12T05:36:37.807Z,0.61
2019-02-12T05:39:06.042Z,0.57
2019-02-12T05:41:34.231Z,0.53
2019-02-12T05:44:02.407Z,0.52
2019-02-12T05:46:30.601Z,0.54
2019-02-12T05:48:58.786Z,0.54
2019-02-12T05:51:27.044Z,0.57
2019-02-12T05:53:55.207Z,0.58
2019-02-12T05:56:23.389Z,0.60
2019-02-12T05:58:51.591Z,0.62
2019-02-12T06:01:28.768Z,0.64
2019-02-12T06:04:01.259Z,0.65
2019-02-12T06:06:54.681Z,0.68
2019-02-12T06:12:35.383Z,0.71
2019-02-12T06:15:04.771Z,0.73
2019-02-12T06:17:33.138Z,0.78
2019-02-12T06:20:01.353Z,0.81
2019-02-12T06:22:29.593Z,0.81
2019-02-12T06:24:57.830Z,0.81
2019-02-12T06:27:26.192Z,0.78
2019-02-12T06:29:54.469Z,0.79
2019-02-12T06:32:22.745Z,0.83
2019-02-12T06:34:51.094Z,0.86
2019-02-12T06:37:19.381Z,0.85
2019-02-12T06:39:47.650Z,0.84
2019-02-12T06:42:15.843Z,0.83
2019-02-12T06:44:44.286Z,0.81
2019-02-12T06:47:12.536Z,0.81
2019-02-12T06:49:40.740Z,0.80
2019-02-12T06:52:08.936Z,0.79
2019-02-12T06:54:37.097Z,0.79
2019-02-12T06:57:05.280Z,0.80
2019-02-12T06:59:33.468Z,0.79
2019-02-12T07:02:27.172Z,0.80
2019-02-12T07:04:55.366Z,0.80
2019-02-12T07:07:35.521Z,0.81
2019-02-12T07:10:08.971Z,0.81
2019-02-12T07:13:08.965Z,0.80
2019-02-12T07:15:37.158Z,0.80
2019-02-12T07:18:33.001Z,0.81
2019-02-12T07:21:22.727Z,0.82
2019-02-12T07:24:09.391Z,0.83
2019-02-12T07:26:46.488Z,0.85
2019-02-12T07:29:20.585Z,0.87
2019-02-12T07:32:07.068Z,0.89
2019-02-12T07:34:50.542Z,0.88
2019-02-12T07:37:27.948Z,0.89
2019-02-12T07:40:12.601Z,0.89
2019-02-12T07:43:00.274Z,0.92
2019-02-12T07:46:17.794Z,0.95
2019-02-12T07:49:17.515Z,0.99
2019-02-12T07:52:07.982Z,1.05
2019-02-12T07:55:00.654Z,1.07
2019-02-12T07:57:51.459Z,1.10
2019-02-12T08:00:30.102Z,1.11
2019-02-12T08:03:26.567Z,1.13
2019-02-12T08:13:14.416Z,1.18
2019-02-12T08:16:00.026Z,1.21
2019-02-12T08:18:48.280Z,1.15
2019-02-12T08:21:31.520Z,1.08
2019-02-12T08:24:17.921Z,0.94
2019-02-12T08:27:16.687Z,0.89
2019-02-12T08:29:57.044Z,0.83
2019-02-12T08:32:31.029Z,0.77
2019-02-12T08:35:37.242Z,0.78
2019-02-12T08:38:43.475Z,0.78
2019-02-12T08:41:23.982Z,0.84
2019-02-12T08:44:16.215Z,0.86
2019-02-12T08:47:04.106Z,0.89
2019-02-12T08:49:35.554Z,1.01
2019-02-12T08:52:09.821Z,1.15
2019-02-12T08:54:44.096Z,1.35
2019-02-12T08:57:18.459Z,1.57
2019-02-12T08:59:52.574Z,1.77
2019-02-12T09:02:43.107Z,1.94
2019-02-12T09:05:37.871Z,1.98
2019-02-12T09:08:30.232Z,2.01
2019-02-12T09:11:11.803Z,1.97
2019-02-12T09:13:58.886Z,1.91
2019-02-12T09:16:30.355Z,1.98
2019-02-12T09:19:16.381Z,2.04
2019-02-12T09:21:53.927Z,2.09
2019-02-12T09:24:31.275Z,2.17
2019-02-12T09:27:08.914Z,2.24
2019-02-12T09:29:49.223Z,2.28
2019-02-12T09:32:20.659Z,2.31
2019-02-12T09:34:58.011Z,2.35
2019-02-12T09:37:46.107Z,2.38
2019-02-12T09:40:20.169Z,2.44
2019-02-12T09:42:54.184Z,2.49
2019-02-12T09:45:25.625Z,2.56
2019-02-12T09:48:02.763Z,2.56
2019-02-12T09:50:40.026Z,2.63
2019-02-12T09:53:14.414Z,2.72
2019-02-12T09:56:04.223Z,2.70
2019-02-12T09:58:56.775Z,2.69
2019-02-12T10:01:33.926Z,2.66
2019-02-12T10:04:14.309Z,2.69
2019-02-12T10:06:57.549Z,2.82
2019-02-12T10:09:35.618Z,2.88
2019-02-12T10:12:24.118Z,2.90
2019-02-12T10:15:22.785Z,2.92
2019-02-12T10:18:08.795Z,2.99
2019-02-12T10:20:40.227Z,3.03
2019-02-12T10:23:20.486Z,3.07
2019-02-12T10:25:50.812Z,3.14
2019-02-12T10:28:55.917Z,3.12
2019-02-12T10:31:24.094Z,3.14
2019-02-12T10:33:52.282Z,3.18
2019-02-12T10:36:20.466Z,3.19
2019-02-12T10:38:48.650Z,3.20
2019-02-12T10:41:16.819Z,3.16
2019-02-12T10:43:45.012Z,3.11
2019-02-12T10:46:13.206Z,3.10
2019-02-12T10:48:41.393Z,3.06
2019-02-12T10:51:09.590Z,3.13
2019-02-12T10:53:37.796Z,3.13
2019-02-12T10:56:05.956Z,3.23
2019-02-12T10:58:34.169Z,3.24
2019-02-12T11:01:02.369Z,3.23
2019-02-12T11:03:30.537Z,3.24
2019-02-12T11:05:58.820Z,3.25
2019-02-12T11:08:27.052Z,3.32
2019-02-12T11:10:55.259Z,3.37
2019-02-12T11:13:23.486Z,3.35
2019-02-12T11:15:51.919Z,3.35
2019-02-12T11:18:20.280Z,3.43
2019-02-12T11:20:48.483Z,3.50
2019-02-12T11:23:16.742Z,3.58
2019-02-12T11:25:44.928Z,3.52
2019-02-12T11:28:13.102Z,3.48
2019-02-12T11:30:41.342Z,3.41
2019-02-12T11:33:09.512Z,3.36
2019-02-12T11:35:37.765Z,3.38
2019-02-12T11:38:06.093Z,3.43
2019-02-12T11:40:34.333Z,3.51
2019-02-12T11:43:02.607Z,3.53
2019-02-12T11:45:30.808Z,3.57
2019-02-12T11:47:59.236Z,3.55
2019-02-12T11:50:27.491Z,3.59
2019-02-12T11:52:55.742Z,3.54
2019-02-12T11:55:24.096Z,3.51
2019-02-12T11:57:52.294Z,3.57
2019-02-12T12:00:34.246Z,3.59
2019-02-12T12:03:02.489Z,3.61
2019-02-12T12:05:30.670Z,3.59
2019-02-12T12:07:58.914Z,3.59
2019-02-12T12:10:27.085Z,3.31
2019-02-12T12:12:55.270Z,3.61
2019-02-12T12:15:23.448Z,3.63
2019-02-12T12:17:51.630Z,3.63
2019-02-12T12:20:19.823Z,3.63
2019-02-12T12:22:48.029Z,3.64
2019-02-12T12:25:16.848Z,3.62
2019-02-12T12:27:45.033Z,3.54
2019-02-12T12:30:14.377Z,3.49
2019-02-12T12:32:42.710Z,3.48
2019-02-12T12:35:11.434Z,3.52
2019-02-12T12:37:39.630Z,3.49
2019-02-12T12:40:11.751Z,3.49
2019-02-12T12:42:39.945Z,3.46
2019-02-12T12:45:11.526Z,3.48
2019-02-12T12:47:39.807Z,3.47
2019-02-12T12:50:10.259Z,3.42
2019-02-12T12:52:38.484Z,3.42
2019-02-12T12:55:10.265Z,3.43
2019-02-12T12:57:41.841Z,3.46
2019-02-12T13:00:16.410Z,3.50
2019-02-12T13:02:44.591Z,3.54
2019-02-12T13:05:12.753Z,3.54
2019-02-12T13:07:40.987Z,3.52
2019-02-12T13:10:17.435Z,3.41
2019-02-12T13:12:45.950Z,3.37
2019-02-12T13:15:15.046Z,3.34
2019-02-12T13:17:43.232Z,3.34
2019-02-12T13:20:18.785Z,3.33
2019-02-12T13:22:46.973Z,3.44
2019-02-12T13:25:15.150Z,3.60
2019-02-12T13:27:43.353Z,3.68
2019-02-12T13:30:17.152Z,3.72
2019-02-12T13:32:45.373Z,3.79
2019-02-12T13:35:13.557Z,3.88
2019-02-12T13:37:41.780Z,3.91
2019-02-12T13:40:11.690Z,3.87
2019-02-12T13:42:39.879Z,3.79
2019-02-12T13:45:10.851Z,3.74
2019-02-12T13:47:39.050Z,3.65
2019-02-12T13:50:08.694Z,3.58
2019-02-12T13:52:36.894Z,3.52
2019-02-12T13:55:07.241Z,3.50
2019-02-12T13:57:35.460Z,3.45
2019-02-12T14:00:08.190Z,3.48
2019-02-12T14:02:36.368Z,3.48
2019-02-12T14:05:07.268Z,3.47
2019-02-12T14:07:35.535Z,3.40
2019-02-12T14:10:05.054Z,3.38
2019-02-12T14:12:33.272Z,3.38
2019-02-12T14:15:01.460Z,3.39
2019-02-12T14:17:29.710Z,3.42
2019-02-12T14:19:57.923Z,3.43
2019-02-12T14:22:26.095Z,3.45
2019-02-12T14:24:54.338Z,3.45
2019-02-12T14:27:24.131Z,3.41
2019-02-12T14:29:52.391Z,3.38
2019-02-12T14:32:20.587Z,3.35
2019-02-12T14:34:48.816Z,3.34
2019-02-12T14:37:17.035Z,3.32
2019-02-12T14:39:45.219Z,3.26
2019-02-12T14:42:13.727Z,3.24
2019-02-12T14:44:41.949Z,3.21
2019-02-12T14:47:10.194Z,3.17
2019-02-12T14:49:38.345Z,3.16
2019-02-12T14:52:06.609Z,3.11
2019-02-12T14:54:34.830Z,3.10
2019-02-12T14:57:03.174Z,3.10
2019-02-12T14:59:31.359Z,3.11
2019-02-12T15:01:59.545Z,3.13
2019-02-12T15:04:27.728Z,2.81
2019-02-12T15:06:55.903Z,3.14
2019-02-12T15:09:24.146Z,3.13
2019-02-12T15:11:52.328Z,3.12
2019-02-12T15:14:20.530Z,3.14
2019-02-12T15:16:48.744Z,2.72
2019-02-12T15:19:16.990Z,3.10
2019-02-12T15:21:45.172Z,3.07
2019-02-12T15:24:13.347Z,3.05
2019-02-12T15:26:41.574Z,3.01
2019-02-12T15:29:14.032Z,2.96
2019-02-12T15:31:42.175Z,2.92
2019-02-12T15:34:10.387Z,2.88
2019-02-12T15:36:38.559Z,2.82
2019-02-12T15:39:06.740Z,2.78
2019-02-12T15:41:34.930Z,2.76
2019-02-12T15:44:03.360Z,2.72
2019-02-12T15:46:31.544Z,2.30
2019-02-12T15:48:59.762Z,2.70
2019-02-12T15:51:27.935Z,2.67
2019-02-12T15:53:56.118Z,2.66
2019-02-12T15:56:24.301Z,2.64
2019-02-12T15:58:53.723Z,2.62
2019-02-12T16:01:21.868Z,2.60
2019-02-12T16:03:50.058Z,2.56
2019-02-12T16:06:19.295Z,2.54
2019-02-12T16:08:48.247Z,2.52
2019-02-12T16:11:17.148Z,2.51
2019-02-12T16:13:46.348Z,2.48
2019-02-12T16:16:14.542Z,2.48
2019-02-12T16:18:43.384Z,2.46
2019-02-12T16:21:12.665Z,2.45
2019-02-12T16:23:40.893Z,2.43
2019-02-12T16:26:09.817Z,2.40
2019-02-12T16:28:38.174Z,2.41
2019-02-12T16:31:11.138Z,2.37
2019-02-12T16:33:48.556Z,2.37
2019-02-12T16:36:17.131Z,2.34
2019-02-12T16:38:45.581Z,2.33
2019-02-12T16:41:14.070Z,2.31
2019-02-12T16:43:42.448Z,2.28
2019-02-12T16:46:16.830Z,2.26
2019-02-12T16:48:46.108Z,2.27
2019-02-12T16:51:14.637Z,2.26
2019-02-12T16:53:43.115Z,2.25
2019-02-12T16:56:11.883Z,0.99
2019-02-12T16:58:40.414Z,2.23
2019-02-12T17:01:08.905Z,2.23
2019-02-12T17:03:37.408Z,2.21
2019-02-12T17:06:05.856Z,2.21
2019-02-12T17:08:34.886Z,2.21
2019-02-12T17:11:03.397Z,2.22
2019-02-12T17:13:36.105Z,2.21
2019-02-12T17:16:04.379Z,2.22
2019-02-12T17:18:32.785Z,2.22
2019-02-12T17:21:01.035Z,2.21
2019-02-12T17:23:30.712Z,2.21
2019-02-12T17:25:59.130Z,2.21
2019-02-12T17:28:31.248Z,2.20
2019-02-12T17:30:59.485Z,2.18
2019-02-12T17:33:27.820Z,2.18
2019-02-12T17:35:59.382Z,2.17
2019-02-12T17:38:27.836Z,2.18
2019-02-12T17:40:56.405Z,2.17
2019-02-12T17:43:26.661Z,2.10
2019-02-12T17:45:58.138Z,2.16
2019-02-12T17:48:28.765Z,2.15
2019-02-12T17:50:56.939Z,2.14
2019-02-12T17:53:25.213Z,2.14
2019-02-12T17:55:53.408Z,2.15
2019-02-12T17:58:24.596Z,2.15
2019-02-12T18:00:52.787Z,2.14
2019-02-12T18:03:20.960Z,2.14
2019-02-12T18:05:50.142Z,2.14
2019-02-12T18:08:19.390Z,2.12
2019-02-12T18:10:47.620Z,2.13
2019-02-12T18:13:15.805Z,2.13
2019-02-12T18:15:43.984Z,2.11
2019-02-12T18:18:12.158Z,2.12
2019-02-12T18:20:40.353Z,2.12
2019-02-12T18:23:08.612Z,2.12
2019-02-12T18:25:36.826Z,2.11
2019-02-12T18:28:05.012Z,2.11
2019-02-12T18:30:33.194Z,2.11
2019-02-12T18:33:01.372Z,2.10
2019-02-12T18:35:29.546Z,2.10
2019-02-12T18:37:57.720Z,2.10
2019-02-12T18:40:25.909Z,2.10
2019-02-12T18:42:54.085Z,2.11
2019-02-12T18:45:23.357Z,2.11
2019-02-12T18:47:51.897Z,2.11
2019-02-12T18:50:20.060Z,2.12
2019-02-12T18:52:48.230Z,2.12
2019-02-12T18:55:16.777Z,2.11
2019-02-12T18:57:45.888Z,2.13
2019-02-12T19:00:22.129Z,2.10
2019-02-12T19:02:50.372Z,2.11
2019-02-12T19:05:18.545Z,2.10
2019-02-12T19:07:46.721Z,2.11
2019-02-12T19:10:16.443Z,2.10
2019-02-12T19:12:44.608Z,2.11
2019-02-12T19:15:18.211Z,2.09
2019-02-12T19:17:55.851Z,2.09
2019-02-12T19:20:24.027Z,2.07
2019-02-12T19:22:52.212Z,2.06
2019-02-12T19:25:20.429Z,2.06
2019-02-12T19:27:48.563Z,2.06
2019-02-12T19:30:16.819Z,2.05
2019-02-12T19:32:44.992Z,2.04
2019-02-12T19:35:13.164Z,2.04
2019-02-12T19:37:41.345Z,2.03
2019-02-12T19:40:11.998Z,2.03
2019-02-12T19:42:40.231Z,2.01
2019-02-12T19:45:18.059Z,1.99
2019-02-12T19:47:46.226Z,1.97
2019-02-12T19:50:14.406Z,1.95
2019-02-12T19:52:42.583Z,1.93
2019-02-12T19:55:11.073Z,1.90
2019-02-12T19:57:39.269Z,1.86
2019-02-12T20:00:17.432Z,1.83
2019-02-12T20:02:45.609Z,1.67
2019-02-12T20:05:13.783Z,1.76
2019-02-12T20:07:41.962Z,1.76
2019-02-12T20:10:13.795Z,1.76
2019-02-12T20:12:41.967Z,1.75
2019-02-12T20:15:18.498Z,1.74
2019-02-12T20:17:46.709Z,1.75
2019-02-12T20:20:14.870Z,1.81
2019-02-12T20:22:44.021Z,1.76
2019-02-12T20:25:12.191Z,1.91
2019-02-12T20:27:47.580Z,1.93
2019-02-12T20:30:19.357Z,1.94
2019-02-12T20:32:47.526Z,1.94
2019-02-12T20:35:18.298Z,1.95
2019-02-12T20:37:47.421Z,1.96
2019-02-12T20:40:16.595Z,1.95
2019-02-12T20:42:44.768Z,1.96
2019-02-12T20:45:19.440Z,1.98
2019-02-12T20:47:49.514Z,1.98
2019-02-12T20:50:19.030Z,1.98
2019-02-12T20:52:47.271Z,1.96
2019-02-12T20:55:15.436Z,1.96
2019-02-12T20:57:43.631Z,1.96
2019-02-12T21:00:18.048Z,1.94
2019-02-12T21:02:46.230Z,1.97
2019-02-12T21:05:15.662Z,1.98
2019-02-12T21:07:44.307Z,1.97
2019-02-12T21:10:15.075Z,1.96
2019-02-12T21:12:44.082Z,1.97
2019-02-12T21:15:17.963Z,1.97
2019-02-12T21:17:47.117Z,1.96
2019-02-12T21:20:17.280Z,1.96
2019-02-12T21:22:45.454Z,1.95
2019-02-12T21:25:14.045Z,1.95
2019-02-12T21:27:42.222Z,1.95
2019-02-12T21:30:16.606Z,1.93
2019-02-12T21:32:44.795Z,1.93
2019-02-12T21:35:13.711Z,1.90
2019-02-12T21:37:41.895Z,1.89
2019-02-12T21:40:13.326Z,1.88
2019-02-12T21:42:41.511Z,1.86
2019-02-12T21:45:12.693Z,1.85
2019-02-12T21:47:40.979Z,1.83
2019-02-12T21:50:14.884Z,1.83
2019-02-12T21:52:43.074Z,1.83
2019-02-12T21:55:18.622Z,1.82
2019-02-12T21:57:46.802Z,1.83
2019-02-12T22:00:17.133Z,1.83
2019-02-12T22:02:45.322Z,1.84
2019-02-12T22:05:15.050Z,1.84
2019-02-12T22:07:43.237Z,1.84
2019-02-12T22:10:26.159Z,1.83
2019-02-12T22:12:54.324Z,1.83
2019-02-12T22:15:22.498Z,1.83
2019-02-12T22:17:50.676Z,1.83
2019-02-12T22:20:20.040Z,1.83
2019-02-12T22:22:48.173Z,1.81
2019-02-12T22:25:16.352Z,1.82
2019-02-12T22:27:44.575Z,1.79
2019-02-12T22:30:25.801Z,1.80
2019-02-12T22:32:54.016Z,1.78
2019-02-12T22:35:23.176Z,1.75
2019-02-12T22:37:52.119Z,1.72
2019-02-12T22:40:21.212Z,1.69
2019-02-12T22:42:49.393Z,1.66
2019-02-12T22:45:22.055Z,1.61
2019-02-12T22:47:50.236Z,1.60
2019-02-12T22:50:18.419Z,1.57
2019-02-12T22:52:46.589Z,1.56
2019-02-12T22:55:14.764Z,1.54
2019-02-12T22:57:48.944Z,1.54
2019-02-12T23:00:50.394Z,1.53
2019-02-12T23:03:18.819Z,1.54
2019-02-12T23:05:47.059Z,1.54
2019-02-12T23:08:15.307Z,1.54
2019-02-12T23:10:43.434Z,1.53
2019-02-12T23:13:11.647Z,1.52
2019-02-12T23:15:39.823Z,1.50
2019-02-12T23:18:08.000Z,1.50
2019-02-12T23:20:36.175Z,1.48
2019-02-12T23:23:04.360Z,1.47
2019-02-12T23:25:32.540Z,1.48
2019-02-12T23:28:00.713Z,1.49
2019-02-12T23:30:28.886Z,1.49
2019-02-12T23:32:57.062Z,1.48
2019-02-12T23:35:25.233Z,1.47
2019-02-12T23:37:53.407Z,1.47
2019-02-12T23:40:21.585Z,1.46
2019-02-12T23:42:49.756Z,1.46
2019-02-12T23:45:18.013Z,1.44
2019-02-12T23:47:46.190Z,1.43
2019-02-12T23:50:14.370Z,1.42
2019-02-12T23:52:42.545Z,1.42
2019-02-12T23:55:10.721Z,1.41
2019-02-12T23:57:38.892Z,1.41
